sensor_id;sensor_type;location;lat;lon;timestamp;P1;durP1;ratioP1;P2;durP2;ratioP2
37891;SDS011;45797;47.466;9.486;2022-11-21T00:00:37;0.80;;;0.40;;
37891;SDS011;45797;47.466;9.486;2022-11-21T00:05:39;1.58;;;0.45;;
37891;SDS011;45797;47.466;9.486;2022-11-21T00:10:40;0.70;;;0.43;;
37891;SDS011;45797;47.466;9.486;2022-11-21T00:15:47;0.50;;;0.40;;
37891;SDS011;45797;47.466;9.486;2022-11-21T00:26:14;0.50;;;0.40;;
37891;SDS011;45797;47.466;9.486;2022-11-21T00:31:19;0.60;;;0.40;;
37891;SDS011;45797;47.466;9.486;2022-11-21T00:36:21;1.25;;;0.60;;
37891;SDS011;45797;47.466;9.486;2022-11-21T00:41:21;0.95;;;0.50;;
37891;SDS011;45797;47.466;9.486;2022-11-21T00:46:29;0.50;;;0.40;;
37891;SDS011;45797;47.466;9.486;2022-11-21T00:56:34;0.60;;;0.47;;
37891;SDS011;45797;47.466;9.486;2022-11-21T01:06:45;0.40;;;0.30;;
37891;SDS011;45797;47.466;9.486;2022-11-21T01:11:46;1.25;;;0.73;;
37891;SDS011;45797;47.466;9.486;2022-11-21T01:16:47;0.90;;;0.50;;
37891;SDS011;45797;47.466;9.486;2022-11-21T01:21:48;0.85;;;0.40;;
37891;SDS011;45797;47.466;9.486;2022-11-21T01:27:04;1.20;;;0.50;;
37891;SDS011;45797;47.466;9.486;2022-11-21T01:32:04;0.65;;;0.40;;
37891;SDS011;45797;47.466;9.486;2022-11-21T01:37:05;1.65;;;0.60;;
37891;SDS011;45797;47.466;9.486;2022-11-21T01:42:05;0.80;;;0.50;;
37891;SDS011;45797;47.466;9.486;2022-11-21T01:47:07;0.50;;;0.40;;
37891;SDS011;45797;47.466;9.486;2022-11-21T01:52:12;0.50;;;0.40;;
37891;SDS011;45797;47.466;9.486;2022-11-21T02:02:42;0.80;;;0.40;;
37891;SDS011;45797;47.466;9.486;2022-11-21T02:07:48;0.52;;;0.32;;
37891;SDS011;45797;47.466;9.486;2022-11-21T02:12:52;0.70;;;0.40;;
37891;SDS011;45797;47.466;9.486;2022-11-21T02:17:54;0.80;;;0.50;;
37891;SDS011;45797;47.466;9.486;2022-11-21T02:23:15;0.57;;;0.40;;
37891;SDS011;45797;47.466;9.486;2022-11-21T02:28:34;0.80;;;0.40;;
37891;SDS011;45797;47.466;9.486;2022-11-21T02:33:36;0.57;;;0.40;;
37891;SDS011;45797;47.466;9.486;2022-11-21T02:38:36;1.15;;;0.50;;
37891;SDS011;45797;47.466;9.486;2022-11-21T02:43:43;0.38;;;0.30;;
37891;SDS011;45797;47.466;9.486;2022-11-21T02:48:50;0.45;;;0.40;;
37891;SDS011;45797;47.466;9.486;2022-11-21T02:53:52;0.32;;;0.32;;
37891;SDS011;45797;47.466;9.486;2022-11-21T03:04:28;0.30;;;0.30;;
37891;SDS011;45797;47.466;9.486;2022-11-21T03:09:30;0.52;;;0.40;;
37891;SDS011;45797;47.466;9.486;2022-11-21T03:14:32;1.27;;;0.52;;
37891;SDS011;45797;47.466;9.486;2022-11-21T03:19:35;0.40;;;0.30;;
37891;SDS011;45797;47.466;9.486;2022-11-21T03:29:42;0.35;;;0.30;;
37891;SDS011;45797;47.466;9.486;2022-11-21T03:34:42;0.50;;;0.40;;
37891;SDS011;45797;47.466;9.486;2022-11-21T03:39:52;0.80;;;0.40;;
37891;SDS011;45797;47.466;9.486;2022-11-21T03:49:57;0.80;;;0.40;;
37891;SDS011;45797;47.466;9.486;2022-11-21T03:55:05;1.55;;;0.38;;
37891;SDS011;45797;47.466;9.486;2022-11-21T04:00:07;1.35;;;0.50;;
37891;SDS011;45797;47.466;9.486;2022-11-21T04:05:09;0.47;;;0.40;;
37891;SDS011;45797;47.466;9.486;2022-11-21T04:10:11;1.35;;;0.38;;
37891;SDS011;45797;47.466;9.486;2022-11-21T04:15:17;0.40;;;0.40;;
37891;SDS011;45797;47.466;9.486;2022-11-21T04:31:58;0.65;;;0.40;;
37891;SDS011;45797;47.466;9.486;2022-11-21T04:36:59;1.63;;;0.40;;
37891;SDS011;45797;47.466;9.486;2022-11-21T04:42:12;2.28;;;0.60;;
37891;SDS011;45797;47.466;9.486;2022-11-21T04:47:21;0.30;;;0.30;;
37891;SDS011;45797;47.466;9.486;2022-11-21T04:58:04;0.98;;;0.40;;
37891;SDS011;45797;47.466;9.486;2022-11-21T05:03:12;0.50;;;0.38;;
37891;SDS011;45797;47.466;9.486;2022-11-21T05:08:22;1.80;;;0.63;;
37891;SDS011;45797;47.466;9.486;2022-11-21T05:18:27;0.47;;;0.30;;
37891;SDS011;45797;47.466;9.486;2022-11-21T05:23:27;5.38;;;0.50;;
37891;SDS011;45797;47.466;9.486;2022-11-21T05:28:28;0.35;;;0.32;;
37891;SDS011;45797;47.466;9.486;2022-11-21T05:33:29;1.38;;;0.70;;
37891;SDS011;45797;47.466;9.486;2022-11-21T05:38:38;0.80;;;0.50;;
37891;SDS011;45797;47.466;9.486;2022-11-21T05:43:40;1.25;;;0.40;;
37891;SDS011;45797;47.466;9.486;2022-11-21T05:48:48;1.98;;;0.50;;
37891;SDS011;45797;47.466;9.486;2022-11-21T05:53:50;1.65;;;0.50;;
37891;SDS011;45797;47.466;9.486;2022-11-21T05:58:58;0.40;;;0.40;;
37891;SDS011;45797;47.466;9.486;2022-11-21T06:03:59;1.38;;;0.63;;
37891;SDS011;45797;47.466;9.486;2022-11-21T06:09:01;1.35;;;0.40;;
37891;SDS011;45797;47.466;9.486;2022-11-21T06:19:13;0.47;;;0.35;;
37891;SDS011;45797;47.466;9.486;2022-11-21T06:24:18;0.57;;;0.30;;
37891;SDS011;45797;47.466;9.486;2022-11-21T06:29:19;0.65;;;0.40;;
37891;SDS011;45797;47.466;9.486;2022-11-21T06:34:30;0.65;;;0.50;;
37891;SDS011;45797;47.466;9.486;2022-11-21T06:39:30;1.52;;;0.57;;
37891;SDS011;45797;47.466;9.486;2022-11-21T06:49:35;1.83;;;0.47;;
37891;SDS011;45797;47.466;9.486;2022-11-21T06:54:42;0.47;;;0.32;;
37891;SDS011;45797;47.466;9.486;2022-11-21T06:59:43;0.70;;;0.50;;
37891;SDS011;45797;47.466;9.486;2022-11-21T07:04:44;0.82;;;0.40;;
37891;SDS011;45797;47.466;9.486;2022-11-21T07:09:46;0.50;;;0.40;;
37891;SDS011;45797;47.466;9.486;2022-11-21T07:19:52;0.82;;;0.50;;
37891;SDS011;45797;47.466;9.486;2022-11-21T07:25:04;1.00;;;0.60;;
37891;SDS011;45797;47.466;9.486;2022-11-21T07:30:06;0.80;;;0.50;;
37891;SDS011;45797;47.466;9.486;2022-11-21T07:35:07;0.45;;;0.32;;
37891;SDS011;45797;47.466;9.486;2022-11-21T07:40:14;0.50;;;0.38;;
37891;SDS011;45797;47.466;9.486;2022-11-21T07:45:26;0.85;;;0.50;;
37891;SDS011;45797;47.466;9.486;2022-11-21T07:50:28;0.55;;;0.40;;
37891;SDS011;45797;47.466;9.486;2022-11-21T08:00:51;0.68;;;0.40;;
37891;SDS011;45797;47.466;9.486;2022-11-21T08:05:52;1.15;;;0.45;;
37891;SDS011;45797;47.466;9.486;2022-11-21T08:10:54;0.88;;;0.47;;
37891;SDS011;45797;47.466;9.486;2022-11-21T08:15:55;1.63;;;0.60;;
37891;SDS011;45797;47.466;9.486;2022-11-21T08:20:59;1.77;;;0.70;;
37891;SDS011;45797;47.466;9.486;2022-11-21T08:26:08;3.22;;;0.50;;
37891;SDS011;45797;47.466;9.486;2022-11-21T08:31:09;1.50;;;0.40;;
37891;SDS011;45797;47.466;9.486;2022-11-21T08:36:09;5.97;;;0.60;;
37891;SDS011;45797;47.466;9.486;2022-11-21T08:41:18;3.00;;;0.60;;
37891;SDS011;45797;47.466;9.486;2022-11-21T08:46:37;0.35;;;0.30;;
37891;SDS011;45797;47.466;9.486;2022-11-21T08:51:38;1.40;;;0.50;;
37891;SDS011;45797;47.466;9.486;2022-11-21T08:56:49;1.00;;;0.60;;
37891;SDS011;45797;47.466;9.486;2022-11-21T09:01:50;0.82;;;0.50;;
37891;SDS011;45797;47.466;9.486;2022-11-21T09:06:53;6.22;;;0.52;;
37891;SDS011;45797;47.466;9.486;2022-11-21T09:12:00;0.95;;;0.47;;
37891;SDS011;45797;47.466;9.486;2022-11-21T09:22:31;0.75;;;0.40;;
37891;SDS011;45797;47.466;9.486;2022-11-21T09:27:31;0.65;;;0.40;;
37891;SDS011;45797;47.466;9.486;2022-11-21T09:32:33;1.05;;;0.50;;
37891;SDS011;45797;47.466;9.486;2022-11-21T09:37:37;1.20;;;0.45;;
37891;SDS011;45797;47.466;9.486;2022-11-21T09:53:22;1.17;;;0.50;;
37891;SDS011;45797;47.466;9.486;2022-11-21T09:58:38;1.05;;;0.43;;
37891;SDS011;45797;47.466;9.486;2022-11-21T10:03:46;0.90;;;0.52;;
37891;SDS011;45797;47.466;9.486;2022-11-21T10:25:23;1.38;;;0.60;;
37891;SDS011;45797;47.466;9.486;2022-11-21T10:30:29;2.10;;;0.70;;
37891;SDS011;45797;47.466;9.486;2022-11-21T10:35:52;2.33;;;0.75;;
37891;SDS011;45797;47.466;9.486;2022-11-21T10:41:01;2.25;;;0.75;;
37891;SDS011;45797;47.466;9.486;2022-11-21T10:46:08;1.60;;;0.70;;
37891;SDS011;45797;47.466;9.486;2022-11-21T10:56:28;1.35;;;0.73;;
37891;SDS011;45797;47.466;9.486;2022-11-21T11:01:36;2.17;;;0.65;;
37891;SDS011;45797;47.466;9.486;2022-11-21T11:06:36;1.35;;;0.60;;
37891;SDS011;45797;47.466;9.486;2022-11-21T11:11:50;1.40;;;0.65;;
37891;SDS011;45797;47.466;9.486;2022-11-21T11:16:51;0.93;;;0.40;;
37891;SDS011;45797;47.466;9.486;2022-11-21T11:21:51;1.00;;;0.60;;
37891;SDS011;45797;47.466;9.486;2022-11-21T11:26:57;1.42;;;0.50;;
37891;SDS011;45797;47.466;9.486;2022-11-21T11:48:21;2.95;;;0.60;;
37891;SDS011;45797;47.466;9.486;2022-11-21T11:58:35;2.35;;;0.90;;
37891;SDS011;45797;47.466;9.486;2022-11-21T12:09:10;2.45;;;0.80;;
37891;SDS011;45797;47.466;9.486;2022-11-21T12:20:12;2.67;;;0.70;;
37891;SDS011;45797;47.466;9.486;2022-11-21T12:25:16;3.15;;;1.25;;
37891;SDS011;45797;47.466;9.486;2022-11-21T12:30:36;1.50;;;0.70;;
37891;SDS011;45797;47.466;9.486;2022-11-21T12:36:16;1.90;;;0.80;;
37891;SDS011;45797;47.466;9.486;2022-11-21T12:52:39;1.58;;;0.60;;
37891;SDS011;45797;47.466;9.486;2022-11-21T13:03:20;1.73;;;0.80;;
37891;SDS011;45797;47.466;9.486;2022-11-21T13:08:40;1.20;;;0.60;;
37891;SDS011;45797;47.466;9.486;2022-11-21T13:13:45;1.98;;;0.70;;
37891;SDS011;45797;47.466;9.486;2022-11-21T13:18:51;2.92;;;0.70;;
37891;SDS011;45797;47.466;9.486;2022-11-21T13:23:59;1.85;;;0.60;;
37891;SDS011;45797;47.466;9.486;2022-11-21T13:29:35;2.50;;;0.80;;
37891;SDS011;45797;47.466;9.486;2022-11-21T13:34:33;2.15;;;0.90;;
37891;SDS011;45797;47.466;9.486;2022-11-21T13:39:35;2.30;;;0.70;;
37891;SDS011;45797;47.466;9.486;2022-11-21T13:44:40;1.88;;;0.70;;
37891;SDS011;45797;47.466;9.486;2022-11-21T14:06:42;1.08;;;0.50;;
37891;SDS011;45797;47.466;9.486;2022-11-21T14:16:53;1.40;;;0.70;;
37891;SDS011;45797;47.466;9.486;2022-11-21T14:27:58;2.10;;;0.63;;
37891;SDS011;45797;47.466;9.486;2022-11-21T14:38:27;1.83;;;0.82;;
37891;SDS011;45797;47.466;9.486;2022-11-21T14:43:31;38.47;;;18.63;;
37891;SDS011;45797;47.466;9.486;2022-11-21T14:48:36;693.78;;;260.60;;
37891;SDS011;45797;47.466;9.486;2022-11-21T14:53:40;435.30;;;163.20;;
37891;SDS011;45797;47.466;9.486;2022-11-21T14:58:49;405.48;;;150.90;;
37891;SDS011;45797;47.466;9.486;2022-11-21T15:03:54;543.13;;;215.13;;
37891;SDS011;45797;47.466;9.486;2022-11-21T15:09:13;174.80;;;62.40;;
37891;SDS011;45797;47.466;9.486;2022-11-21T15:20:05;924.13;;;453.95;;
37891;SDS011;45797;47.466;9.486;2022-11-21T15:25:20;857.72;;;365.98;;
37891;SDS011;45797;47.466;9.486;2022-11-21T15:30:27;403.60;;;170.73;;
37891;SDS011;45797;47.466;9.486;2022-11-21T15:46:18;16.88;;;9.85;;
37891;SDS011;45797;47.466;9.486;2022-11-21T15:51:39;49.63;;;27.08;;
37891;SDS011;45797;47.466;9.486;2022-11-21T15:56:42;18.08;;;10.10;;
37891;SDS011;45797;47.466;9.486;2022-11-21T16:01:45;46.88;;;26.42;;
37891;SDS011;45797;47.466;9.486;2022-11-21T16:11:49;220.68;;;71.05;;
37891;SDS011;45797;47.466;9.486;2022-11-21T16:16:55;106.78;;;53.85;;
37891;SDS011;45797;47.466;9.486;2022-11-21T16:22:05;5.60;;;3.15;;
37891;SDS011;45797;47.466;9.486;2022-11-21T16:27:09;5.63;;;1.98;;
37891;SDS011;45797;47.466;9.486;2022-11-21T16:32:16;2.92;;;1.60;;
37891;SDS011;45797;47.466;9.486;2022-11-21T16:42:22;2.00;;;1.10;;
37891;SDS011;45797;47.466;9.486;2022-11-21T16:47:25;2.63;;;1.20;;
37891;SDS011;45797;47.466;9.486;2022-11-21T16:57:34;3.55;;;1.52;;
37891;SDS011;45797;47.466;9.486;2022-11-21T17:02:35;5.75;;;1.75;;
37891;SDS011;45797;47.466;9.486;2022-11-21T17:07:36;2.65;;;1.42;;
37891;SDS011;45797;47.466;9.486;2022-11-21T17:12:39;3.75;;;1.08;;
37891;SDS011;45797;47.466;9.486;2022-11-21T17:17:43;3.42;;;1.17;;
37891;SDS011;45797;47.466;9.486;2022-11-21T17:22:45;2.38;;;1.10;;
37891;SDS011;45797;47.466;9.486;2022-11-21T17:27:45;2.58;;;0.90;;
37891;SDS011;45797;47.466;9.486;2022-11-21T17:32:49;2.08;;;1.00;;
37891;SDS011;45797;47.466;9.486;2022-11-21T17:37:49;2.20;;;1.00;;
37891;SDS011;45797;47.466;9.486;2022-11-21T17:47:55;3.72;;;1.42;;
37891;SDS011;45797;47.466;9.486;2022-11-21T17:52:56;5.18;;;1.70;;
37891;SDS011;45797;47.466;9.486;2022-11-21T17:57:58;2.50;;;1.10;;
37891;SDS011;45797;47.466;9.486;2022-11-21T18:02:58;2.63;;;1.10;;
37891;SDS011;45797;47.466;9.486;2022-11-21T18:13:04;2.63;;;1.10;;
37891;SDS011;45797;47.466;9.486;2022-11-21T18:18:04;3.00;;;1.30;;
37891;SDS011;45797;47.466;9.486;2022-11-21T18:23:05;4.90;;;1.35;;
37891;SDS011;45797;47.466;9.486;2022-11-21T18:28:07;4.50;;;1.35;;
37891;SDS011;45797;47.466;9.486;2022-11-21T18:33:07;2.83;;;1.10;;
37891;SDS011;45797;47.466;9.486;2022-11-21T18:38:17;4.25;;;1.17;;
37891;SDS011;45797;47.466;9.486;2022-11-21T18:43:17;2.25;;;1.02;;
37891;SDS011;45797;47.466;9.486;2022-11-21T18:48:17;3.72;;;1.27;;
37891;SDS011;45797;47.466;9.486;2022-11-21T18:53:19;2.92;;;1.10;;
37891;SDS011;45797;47.466;9.486;2022-11-21T18:58:20;2.30;;;1.00;;
37891;SDS011;45797;47.466;9.486;2022-11-21T19:08:23;2.80;;;1.05;;
37891;SDS011;45797;47.466;9.486;2022-11-21T19:13:27;2.60;;;1.02;;
37891;SDS011;45797;47.466;9.486;2022-11-21T19:18:30;3.38;;;1.17;;
37891;SDS011;45797;47.466;9.486;2022-11-21T19:23:34;2.78;;;1.35;;
37891;SDS011;45797;47.466;9.486;2022-11-21T19:33:41;2.63;;;1.30;;
37891;SDS011;45797;47.466;9.486;2022-11-21T19:38:42;2.47;;;1.23;;
37891;SDS011;45797;47.466;9.486;2022-11-21T19:43:47;3.53;;;1.58;;
37891;SDS011;45797;47.466;9.486;2022-11-21T19:48:52;5.60;;;1.80;;
37891;SDS011;45797;47.466;9.486;2022-11-21T19:53:55;2.95;;;1.25;;
37891;SDS011;45797;47.466;9.486;2022-11-21T19:58:57;2.67;;;1.25;;
37891;SDS011;45797;47.466;9.486;2022-11-21T20:04:00;2.53;;;1.17;;
37891;SDS011;45797;47.466;9.486;2022-11-21T20:09:06;1.92;;;1.00;;
37891;SDS011;45797;47.466;9.486;2022-11-21T20:14:22;2.95;;;0.98;;
37891;SDS011;45797;47.466;9.486;2022-11-21T20:19:24;2.25;;;0.93;;
37891;SDS011;45797;47.466;9.486;2022-11-21T20:29:43;3.88;;;1.00;;
37891;SDS011;45797;47.466;9.486;2022-11-21T20:34:45;4.47;;;0.85;;
37891;SDS011;45797;47.466;9.486;2022-11-21T20:39:55;1.42;;;0.80;;
37891;SDS011;45797;47.466;9.486;2022-11-21T20:44:57;2.03;;;0.82;;
37891;SDS011;45797;47.466;9.486;2022-11-21T20:50:06;1.75;;;0.90;;
37891;SDS011;45797;47.466;9.486;2022-11-21T20:55:08;3.25;;;0.70;;
37891;SDS011;45797;47.466;9.486;2022-11-21T21:00:11;1.25;;;0.70;;
37891;SDS011;45797;47.466;9.486;2022-11-21T21:05:11;1.17;;;0.68;;
37891;SDS011;45797;47.466;9.486;2022-11-21T21:15:16;2.53;;;1.00;;
37891;SDS011;45797;47.466;9.486;2022-11-21T21:20:18;3.65;;;1.20;;
37891;SDS011;45797;47.466;9.486;2022-11-21T21:25:18;2.42;;;1.10;;
37891;SDS011;45797;47.466;9.486;2022-11-21T21:30:18;2.17;;;1.05;;
37891;SDS011;45797;47.466;9.486;2022-11-21T21:35:19;3.67;;;1.35;;
37891;SDS011;45797;47.466;9.486;2022-11-21T21:40:21;4.43;;;1.70;;
37891;SDS011;45797;47.466;9.486;2022-11-21T21:45:28;5.28;;;1.95;;
37891;SDS011;45797;47.466;9.486;2022-11-21T21:50:29;2.40;;;1.02;;
37891;SDS011;45797;47.466;9.486;2022-11-21T21:55:30;3.45;;;1.10;;
37891;SDS011;45797;47.466;9.486;2022-11-21T22:00:31;2.60;;;1.40;;
37891;SDS011;45797;47.466;9.486;2022-11-21T22:05:38;2.20;;;1.20;;
37891;SDS011;45797;47.466;9.486;2022-11-21T22:15:55;2.55;;;1.10;;
37891;SDS011;45797;47.466;9.486;2022-11-21T22:26:01;2.92;;;1.50;;
37891;SDS011;45797;47.466;9.486;2022-11-21T22:31:03;3.28;;;1.40;;
37891;SDS011;45797;47.466;9.486;2022-11-21T22:41:29;4.95;;;1.30;;
37891;SDS011;45797;47.466;9.486;2022-11-21T22:46:38;3.35;;;1.40;;
37891;SDS011;45797;47.466;9.486;2022-11-21T22:51:39;3.38;;;1.20;;
37891;SDS011;45797;47.466;9.486;2022-11-21T22:56:41;2.85;;;1.40;;
37891;SDS011;45797;47.466;9.486;2022-11-21T23:01:41;2.72;;;1.50;;
37891;SDS011;45797;47.466;9.486;2022-11-21T23:06:43;1.92;;;1.08;;
37891;SDS011;45797;47.466;9.486;2022-11-21T23:11:54;4.15;;;1.38;;
37891;SDS011;45797;47.466;9.486;2022-11-21T23:16:55;4.03;;;1.40;;
37891;SDS011;45797;47.466;9.486;2022-11-21T23:21:57;3.67;;;1.42;;
37891;SDS011;45797;47.466;9.486;2022-11-21T23:26:57;3.08;;;1.25;;
37891;SDS011;45797;47.466;9.486;2022-11-21T23:31:58;2.63;;;1.33;;
37891;SDS011;45797;47.466;9.486;2022-11-21T23:36:58;2.58;;;1.40;;
37891;SDS011;45797;47.466;9.486;2022-11-21T23:42:00;3.97;;;1.45;;
37891;SDS011;45797;47.466;9.486;2022-11-21T23:47:03;4.28;;;1.58;;
37891;SDS011;45797;47.466;9.486;2022-11-21T23:52:05;2.42;;;1.25;;
